Airfield :
LOGIN :

Register | Disclaimer

   EN    FR    IT 

 










Legend :    VFR   Marginal VFR   IFR   Intensive IFR   Very Intensive IFR
Visi :
Ceiling :
>= 8 km
>= 3000ft
5 to 8 km
1000 to 3000 ft
1500m to 5 km
500 to 1000 ft
800 to 1500m
200 to 500 ft
< 800m
< 200 ft
Symbols :   Thunderstorms  Fog  Heavy snow  Heavy precipitations  Wind > 20 kt
SIGMETs :     Misc.  Thunderstorms  Icing  Turbulence  Mountain Waves  Volcanic Ashes






- Airport Elevation : 124 ft
- IATA code : NHT


EGWU - RAF Northolt

CURRENT METAR :
  • 281250Z 19013KT 9999 -RA BKN009 BKN012 07/06 Q1003 TEMPO 6000 RA RMK GRN TEMPO GRN

EXPIRED METARs :
  • 281220Z 19011KT 6000 RA BKN009 OVC012 06/06 Q1004 TEMPO 8000 -RA RMK GRN TEMPO GRN
  • 281150Z 19011KT 9999 RA SCT009 BKN012 06/05 Q1005 TEMPO 6000 RMK GRN TEMPO GRN
  • 281120Z 18009KT 8000 RA FEW010 BKN012 06/05 Q1005 TEMPO 6000 RA RMK GRN TEMPO GRN
  • 281050Z 17011KT 9999 RA SCT011 BKN018 06/04 Q1006 TEMPO 6000 RA RMK GRN TEMPO GRN
  • 281020Z 17010KT 8000 RA SCT011 BKN020 05/04 Q1007 TEMPO 6000 RA RMK GRN TEMPO GRN

TAF TAF EGWU
Valid from the 28 at 12:00 until the 29 at 06:00 UTC


281046Z 2812/2906 18012KT 9999 -RA BKN010
TEMPO 2812/2814 17015G25KT 6000 RA
BECMG 2814/2817 22018G28KT
TEMPO 2814/2818 4000 RADZ BKN005
PROB30
TEMPO 2818/2821 5000 -RADZ
BECMG 2822/2901 NSW BKN015
BECMG 2904/2906 FEW020 BKN040
PROB40
TEMPO 2904/2906 18024G35KT 5000 SHRA SCT020



MET'MAP, your aeronautical weather chart ! - Copyright ORBIFLY December 2007 - Disclaimer

ORBIFLY MET'MAP TEAM :

Programming & Development : Alexandra Zaïnal
Concept & original design : Baudouin d'Aumeries
Assistance for programming : Marc-Olivier Méhu
Technical & hardware support : Manuel Goepfert

Contact : metmap@orbifly.com




SOURCES & CREDITS :

   NOAA